sensor_id;sensor_type;location;lat;lon;timestamp;pressure;altitude;pressure_sealevel;temperature;humidity
11440;BME280;5776;51.814;4.510;2023-04-25T00:01:40;101207.81;;;8.48;100.00
11440;BME280;5776;51.814;4.510;2023-04-25T00:04:05;101198.31;;;8.45;100.00
11440;BME280;5776;51.814;4.510;2023-04-25T00:06:32;101205.38;;;8.46;100.00
11440;BME280;5776;51.814;4.510;2023-04-25T00:09:02;101209.97;;;8.46;100.00
11440;BME280;5776;51.814;4.510;2023-04-25T00:11:29;101205.09;;;8.48;100.00
11440;BME280;5776;51.814;4.510;2023-04-25T00:13:56;101207.53;;;8.49;100.00
11440;BME280;5776;51.814;4.510;2023-04-25T00:16:23;101210.56;;;8.53;100.00
11440;BME280;5776;51.814;4.510;2023-04-25T00:18:49;101212.16;;;8.54;100.00
11440;BME280;5776;51.814;4.510;2023-04-25T00:21:20;101211.38;;;8.53;100.00
11440;BME280;5776;51.814;4.510;2023-04-25T00:23:46;101217.59;;;8.54;100.00
11440;BME280;5776;51.814;4.510;2023-04-25T00:26:12;101219.75;;;8.52;100.00
11440;BME280;5776;51.814;4.510;2023-04-25T00:28:39;101222.19;;;8.53;100.00
11440;BME280;5776;51.814;4.510;2023-04-25T00:31:05;101220.28;;;8.54;100.00
11440;BME280;5776;51.814;4.510;2023-04-25T00:33:31;101224.63;;;8.55;100.00
11440;BME280;5776;51.814;4.510;2023-04-25T00:35:57;101224.34;;;8.51;100.00
11440;BME280;5776;51.814;4.510;2023-04-25T00:38:23;101229.47;;;8.48;100.00
11440;BME280;5776;51.814;4.510;2023-04-25T00:40:49;101232.44;;;8.46;100.00
11440;BME280;5776;51.814;4.510;2023-04-25T00:43:15;101226.47;;;8.44;100.00
11440;BME280;5776;51.814;4.510;2023-04-25T00:45:43;101223.22;;;8.42;100.00
11440;BME280;5776;51.814;4.510;2023-04-25T00:48:13;101229.72;;;8.41;100.00
11440;BME280;5776;51.814;4.510;2023-04-25T00:50:40;101225.63;;;8.38;100.00
11440;BME280;5776;51.814;4.510;2023-04-25T00:53:06;101229.38;;;8.37;100.00
11440;BME280;5776;51.814;4.510;2023-04-25T00:55:33;101232.38;;;8.36;100.00
11440;BME280;5776;51.814;4.510;2023-04-25T00:58:01;101229.91;;;8.34;100.00
11440;BME280;5776;51.814;4.510;2023-04-25T01:00:28;101239.13;;;8.33;100.00
11440;BME280;5776;51.814;4.510;2023-04-25T01:02:54;101239.13;;;8.33;100.00
11440;BME280;5776;51.814;4.510;2023-04-25T01:05:20;101239.66;;;8.30;100.00
11440;BME280;5776;51.814;4.510;2023-04-25T01:07:46;101234.75;;;8.27;100.00
11440;BME280;5776;51.814;4.510;2023-04-25T01:10:12;101242.34;;;8.25;100.00
11440;BME280;5776;51.814;4.510;2023-04-25T01:12:39;101244.47;;;8.23;100.00
11440;BME280;5776;51.814;4.510;2023-04-25T01:15:05;101242.84;;;8.22;100.00
11440;BME280;5776;51.814;4.510;2023-04-25T01:17:34;101239.03;;;8.18;100.00
11440;BME280;5776;51.814;4.510;2023-04-25T01:20:05;101245.81;;;8.20;100.00
11440;BME280;5776;51.814;4.510;2023-04-25T01:22:33;101239.56;;;8.20;100.00
11440;BME280;5776;51.814;4.510;2023-04-25T01:24:59;101240.41;;;8.20;100.00
11440;BME280;5776;51.814;4.510;2023-04-25T01:27:25;101237.16;;;8.18;100.00
11440;BME280;5776;51.814;4.510;2023-04-25T01:29:54;101250.41;;;8.20;100.00
11440;BME280;5776;51.814;4.510;2023-04-25T01:32:22;101247.44;;;8.21;100.00
11440;BME280;5776;51.814;4.510;2023-04-25T01:34:48;101253.66;;;8.22;100.00
11440;BME280;5776;51.814;4.510;2023-04-25T01:37:14;101250.72;;;8.23;100.00
11440;BME280;5776;51.814;4.510;2023-04-25T01:39:40;101249.63;;;8.25;100.00
11440;BME280;5776;51.814;4.510;2023-04-25T01:42:06;101255.03;;;8.25;100.00
11440;BME280;5776;51.814;4.510;2023-04-25T01:44:32;101253.16;;;8.25;100.00
11440;BME280;5776;51.814;4.510;2023-04-25T01:46:58;101250.47;;;8.25;100.00
11440;BME280;5776;51.814;4.510;2023-04-25T01:49:24;101255.88;;;8.25;100.00
11440;BME280;5776;51.814;4.510;2023-04-25T01:51:50;101258.28;;;8.27;100.00
11440;BME280;5776;51.814;4.510;2023-04-25T01:54:16;101260.22;;;8.31;100.00
11440;BME280;5776;51.814;4.510;2023-04-25T01:56:50;101267.81;;;8.34;100.00
11440;BME280;5776;51.814;4.510;2023-04-25T01:59:16;101264.53;;;8.32;100.00
11440;BME280;5776;51.814;4.510;2023-04-25T02:01:41;101259.97;;;8.33;100.00
11440;BME280;5776;51.814;4.510;2023-04-25T02:04:07;101265.06;;;8.29;100.00
11440;BME280;5776;51.814;4.510;2023-04-25T02:06:33;101262.09;;;8.26;100.00
11440;BME280;5776;51.814;4.510;2023-04-25T02:08:59;101261.53;;;8.23;100.00
11440;BME280;5776;51.814;4.510;2023-04-25T02:11:25;101258.00;;;8.23;100.00
11440;BME280;5776;51.814;4.510;2023-04-25T02:13:51;101265.28;;;8.22;100.00
11440;BME280;5776;51.814;4.510;2023-04-25T02:16:17;101266.13;;;8.23;100.00
11440;BME280;5776;51.814;4.510;2023-04-25T02:18:48;101257.47;;;8.21;100.00
11440;BME280;5776;51.814;4.510;2023-04-25T02:21:14;101259.88;;;8.22;100.00
11440;BME280;5776;51.814;4.510;2023-04-25T02:23:41;101261.78;;;8.22;100.00
11440;BME280;5776;51.814;4.510;2023-04-25T02:26:07;101258.50;;;8.20;100.00
11440;BME280;5776;51.814;4.510;2023-04-25T02:28:32;101269.63;;;8.18;100.00
11440;BME280;5776;51.814;4.510;2023-04-25T02:30:58;101264.22;;;8.18;100.00
11440;BME280;5776;51.814;4.510;2023-04-25T02:33:24;101276.94;;;8.18;100.00
11440;BME280;5776;51.814;4.510;2023-04-25T02:35:50;101267.97;;;8.17;100.00
11440;BME280;5776;51.814;4.510;2023-04-25T02:38:16;101265.25;;;8.17;100.00
11440;BME280;5776;51.814;4.510;2023-04-25T02:40:41;101272.31;;;8.18;100.00
11440;BME280;5776;51.814;4.510;2023-04-25T02:43:07;101270.44;;;8.19;100.00
11440;BME280;5776;51.814;4.510;2023-04-25T02:45:33;101270.44;;;8.19;100.00
11440;BME280;5776;51.814;4.510;2023-04-25T02:48:01;101279.63;;;8.18;100.00
11440;BME280;5776;51.814;4.510;2023-04-25T02:50:27;101274.75;;;8.20;100.00
11440;BME280;5776;51.814;4.510;2023-04-25T02:52:53;101264.72;;;8.15;100.00
11440;BME280;5776;51.814;4.510;2023-04-25T02:55:19;101267.16;;;8.17;100.00
11440;BME280;5776;51.814;4.510;2023-04-25T02:57:44;101275.81;;;8.14;99.64
11440;BME280;5776;51.814;4.510;2023-04-25T03:00:11;101269.84;;;8.12;100.00
11440;BME280;5776;51.814;4.510;2023-04-25T03:02:37;101268.22;;;8.11;99.21
11440;BME280;5776;51.814;4.510;2023-04-25T03:05:03;101276.06;;;8.12;100.00
11440;BME280;5776;51.814;4.510;2023-04-25T03:07:29;101276.06;;;8.12;99.38
11440;BME280;5776;51.814;4.510;2023-04-25T03:09:55;101286.06;;;8.12;100.00
11440;BME280;5776;51.814;4.510;2023-04-25T03:12:22;101279.88;;;8.16;100.00
11440;BME280;5776;51.814;4.510;2023-04-25T03:14:48;101274.19;;;8.13;100.00
11440;BME280;5776;51.814;4.510;2023-04-25T03:17:14;101275.25;;;8.12;100.00
11440;BME280;5776;51.814;4.510;2023-04-25T03:19:39;101280.38;;;8.08;100.00
11440;BME280;5776;51.814;4.510;2023-04-25T03:22:05;101281.72;;;8.06;100.00
11440;BME280;5776;51.814;4.510;2023-04-25T03:24:31;101278.44;;;8.04;100.00
11440;BME280;5776;51.814;4.510;2023-04-25T03:26:57;101284.09;;;8.02;100.00
11440;BME280;5776;51.814;4.510;2023-04-25T03:29:23;101292.50;;;8.00;100.00
11440;BME280;5776;51.814;4.510;2023-04-25T03:31:52;101281.69;;;8.00;99.96
11440;BME280;5776;51.814;4.510;2023-04-25T03:34:17;101279.47;;;7.97;100.00
11440;BME280;5776;51.814;4.510;2023-04-25T03:36:43;101285.97;;;7.96;100.00
11440;BME280;5776;51.814;4.510;2023-04-25T03:39:09;101282.69;;;7.94;100.00
11440;BME280;5776;51.814;4.510;2023-04-25T03:41:34;101282.69;;;7.94;100.00
11440;BME280;5776;51.814;4.510;2023-04-25T03:44:00;101285.41;;;7.94;100.00
11440;BME280;5776;51.814;4.510;2023-04-25T03:46:27;101291.09;;;7.93;100.00
11440;BME280;5776;51.814;4.510;2023-04-25T03:48:54;101293.78;;;7.93;100.00
11440;BME280;5776;51.814;4.510;2023-04-25T03:51:20;101289.44;;;7.92;100.00
11440;BME280;5776;51.814;4.510;2023-04-25T03:53:46;101297.84;;;7.90;100.00
11440;BME280;5776;51.814;4.510;2023-04-25T03:56:12;101295.13;;;7.90;100.00
11440;BME280;5776;51.814;4.510;2023-04-25T03:58:37;101294.28;;;7.90;100.00
11440;BME280;5776;51.814;4.510;2023-04-25T04:01:04;101297.28;;;7.88;100.00
11440;BME280;5776;51.814;4.510;2023-04-25T04:03:36;101298.09;;;7.89;100.00
11440;BME280;5776;51.814;4.510;2023-04-25T04:06:03;101301.88;;;7.88;100.00
11440;BME280;5776;51.814;4.510;2023-04-25T04:08:30;101305.63;;;7.87;100.00
11440;BME280;5776;51.814;4.510;2023-04-25T04:10:57;101296.72;;;7.86;100.00
11440;BME280;5776;51.814;4.510;2023-04-25T04:13:25;101294.81;;;7.87;100.00
11440;BME280;5776;51.814;4.510;2023-04-25T04:15:51;101302.13;;;7.86;100.00
11440;BME280;5776;51.814;4.510;2023-04-25T04:18:17;101300.50;;;7.85;100.00
11440;BME280;5776;51.814;4.510;2023-04-25T04:20:43;101308.63;;;7.85;100.00
11440;BME280;5776;51.814;4.510;2023-04-25T04:23:09;101307.78;;;7.85;100.00
11440;BME280;5776;51.814;4.510;2023-04-25T04:25:35;101324.59;;;7.92;100.00
11440;BME280;5776;51.814;4.510;2023-04-25T04:28:01;101343.56;;;7.97;100.00
11440;BME280;5776;51.814;4.510;2023-04-25T04:30:27;101348.75;;;7.98;100.00
11440;BME280;5776;51.814;4.510;2023-04-25T04:32:57;101353.06;;;7.99;100.00
11440;BME280;5776;51.814;4.510;2023-04-25T04:35:23;101333.31;;;7.99;100.00
11440;BME280;5776;51.814;4.510;2023-04-25T04:37:49;101340.03;;;7.91;100.00
11440;BME280;5776;51.814;4.510;2023-04-25T04:40:16;101335.69;;;7.90;100.00
11440;BME280;5776;51.814;4.510;2023-04-25T04:42:44;101336.16;;;7.82;100.00
11440;BME280;5776;51.814;4.510;2023-04-25T04:45:11;101339.66;;;7.77;100.00
11440;BME280;5776;51.814;4.510;2023-04-25T04:47:38;101333.97;;;7.79;100.00
11440;BME280;5776;51.814;4.510;2023-04-25T04:50:09;101338.31;;;7.80;100.00
11440;BME280;5776;51.814;4.510;2023-04-25T04:52:36;101335.19;;;7.93;100.00
11440;BME280;5776;51.814;4.510;2023-04-25T04:55:02;101333.88;;;8.01;100.00
11440;BME280;5776;51.814;4.510;2023-04-25T04:57:29;101340.63;;;7.98;100.00
11440;BME280;5776;51.814;4.510;2023-04-25T04:59:55;101343.56;;;7.97;100.00
11440;BME280;5776;51.814;4.510;2023-04-25T05:02:22;101344.31;;;7.87;100.00
11440;BME280;5776;51.814;4.510;2023-04-25T05:04:48;101341.56;;;7.82;100.00
11440;BME280;5776;51.814;4.510;2023-04-25T05:07:14;101342.88;;;7.79;100.00
11440;BME280;5776;51.814;4.510;2023-04-25T05:09:40;101353.16;;;7.77;100.00
11440;BME280;5776;51.814;4.510;2023-04-25T05:12:06;101354.22;;;7.76;100.00
11440;BME280;5776;51.814;4.510;2023-04-25T05:14:32;101355.31;;;7.75;100.00
11440;BME280;5776;51.814;4.510;2023-04-25T05:16:58;101360.16;;;7.73;100.00
11440;BME280;5776;51.814;4.510;2023-04-25T05:19:24;101359.34;;;7.73;100.00
11440;BME280;5776;51.814;4.510;2023-04-25T05:21:50;101365.81;;;7.72;100.00
11440;BME280;5776;51.814;4.510;2023-04-25T05:24:16;101374.72;;;7.72;100.00
11440;BME280;5776;51.814;4.510;2023-04-25T05:26:42;101369.59;;;7.71;100.00
11440;BME280;5776;51.814;4.510;2023-04-25T05:29:08;101375.00;;;7.71;100.00
11440;BME280;5776;51.814;4.510;2023-04-25T05:31:35;101391.47;;;7.69;100.00
11440;BME280;5776;51.814;4.510;2023-04-25T05:34:01;101392.78;;;7.67;100.00
11440;BME280;5776;51.814;4.510;2023-04-25T05:36:27;101394.72;;;7.71;100.00
11440;BME280;5776;51.814;4.510;2023-04-25T05:38:53;101402.28;;;7.69;100.00
11440;BME280;5776;51.814;4.510;2023-04-25T05:41:19;101397.69;;;7.70;100.00
11440;BME280;5776;51.814;4.510;2023-04-25T05:43:46;101399.63;;;7.74;100.00
11440;BME280;5776;51.814;4.510;2023-04-25T05:46:15;101405.88;;;7.75;100.00
11440;BME280;5776;51.814;4.510;2023-04-25T05:48:43;101403.47;;;7.78;100.00
11440;BME280;5776;51.814;4.510;2023-04-25T05:51:08;101412.72;;;7.83;100.00
11440;BME280;5776;51.814;4.510;2023-04-25T05:53:35;101409.16;;;7.82;100.00
11440;BME280;5776;51.814;4.510;2023-04-25T05:56:01;101415.69;;;7.86;100.00
11440;BME280;5776;51.814;4.510;2023-04-25T05:58:27;101416.28;;;7.88;100.00
11440;BME280;5776;51.814;4.510;2023-04-25T06:00:54;101413.84;;;7.92;100.00
11440;BME280;5776;51.814;4.510;2023-04-25T06:03:21;101420.66;;;7.94;100.00
11440;BME280;5776;51.814;4.510;2023-04-25T06:05:47;101420.66;;;7.94;100.00
11440;BME280;5776;51.814;4.510;2023-04-25T06:08:13;101419.59;;;7.95;100.00
11440;BME280;5776;51.814;4.510;2023-04-25T06:10:39;101418.81;;;8.00;100.00
11440;BME280;5776;51.814;4.510;2023-04-25T06:13:04;101421.25;;;8.01;100.00
11440;BME280;5776;51.814;4.510;2023-04-25T06:15:30;101436.16;;;8.04;100.00
11440;BME280;5776;51.814;4.510;2023-04-25T06:17:58;101431.56;;;8.05;100.00
11440;BME280;5776;51.814;4.510;2023-04-25T06:20:24;101435.91;;;8.06;100.00
11440;BME280;5776;51.814;4.510;2023-04-25T06:22:51;101441.88;;;8.08;100.00
11440;BME280;5776;51.814;4.510;2023-04-25T06:25:19;101448.13;;;8.08;100.00
11440;BME280;5776;51.814;4.510;2023-04-25T06:27:45;101453.75;;;8.07;100.00
11440;BME280;5776;51.814;4.510;2023-04-25T06:30:11;101459.75;;;8.09;100.00
11440;BME280;5776;51.814;4.510;2023-04-25T06:32:40;101454.91;;;8.11;100.00
11440;BME280;5776;51.814;4.510;2023-04-25T06:35:07;101460.59;;;8.14;100.00
11440;BME280;5776;51.814;4.510;2023-04-25T06:37:33;101463.59;;;8.13;100.00
11440;BME280;5776;51.814;4.510;2023-04-25T06:39:59;101467.63;;;8.10;100.00
11440;BME280;5776;51.814;4.510;2023-04-25T06:42:25;101476.03;;;8.14;100.00
11440;BME280;5776;51.814;4.510;2023-04-25T06:44:51;101478.16;;;8.12;100.00
11440;BME280;5776;51.814;4.510;2023-04-25T06:47:16;101478.97;;;8.12;100.00
11440;BME280;5776;51.814;4.510;2023-04-25T06:49:42;101483.56;;;8.12;100.00
11440;BME280;5776;51.814;4.510;2023-04-25T06:52:08;101481.16;;;8.10;100.00
11440;BME280;5776;51.814;4.510;2023-04-25T06:54:34;101491.97;;;8.10;100.00
11440;BME280;5776;51.814;4.510;2023-04-25T06:57:00;101491.13;;;8.10;100.00
11440;BME280;5776;51.814;4.510;2023-04-25T06:59:26;101494.41;;;8.12;100.00
11440;BME280;5776;51.814;4.510;2023-04-25T07:01:52;101498.19;;;8.11;100.00
11440;BME280;5776;51.814;4.510;2023-04-25T07:04:18;101502.50;;;8.12;100.00
11440;BME280;5776;51.814;4.510;2023-04-25T07:06:44;101497.09;;;8.12;100.00
11440;BME280;5776;51.814;4.510;2023-04-25T07:09:12;101502.28;;;8.13;100.00
11440;BME280;5776;51.814;4.510;2023-04-25T07:11:38;101515.00;;;8.13;100.00
11440;BME280;5776;51.814;4.510;2023-04-25T07:14:04;101507.16;;;8.16;100.00
11440;BME280;5776;51.814;4.510;2023-04-25T07:16:30;101511.50;;;8.17;100.00
11440;BME280;5776;51.814;4.510;2023-04-25T07:18:56;101504.84;;;8.25;100.00
11440;BME280;5776;51.814;4.510;2023-04-25T07:21:22;101511.63;;;8.28;100.00
11440;BME280;5776;51.814;4.510;2023-04-25T07:23:48;101501.09;;;8.31;100.00
11440;BME280;5776;51.814;4.510;2023-04-25T07:26:13;101511.06;;;8.26;100.00
11440;BME280;5776;51.814;4.510;2023-04-25T07:28:39;101507.78;;;8.23;100.00
11440;BME280;5776;51.814;4.510;2023-04-25T07:31:05;101509.88;;;8.16;99.93
11440;BME280;5776;51.814;4.510;2023-04-25T07:33:31;101517.06;;;8.06;98.71
11440;BME280;5776;51.814;4.510;2023-04-25T07:35:57;101514.88;;;8.03;100.00
11440;BME280;5776;51.814;4.510;2023-04-25T07:38:23;101523.00;;;8.03;100.00
11440;BME280;5776;51.814;4.510;2023-04-25T07:40:49;101519.84;;;8.11;100.00
11440;BME280;5776;51.814;4.510;2023-04-25T07:43:15;101520.75;;;8.21;100.00
11440;BME280;5776;51.814;4.510;2023-04-25T07:45:43;101522.69;;;8.26;100.00
11440;BME280;5776;51.814;4.510;2023-04-25T07:48:08;101524.88;;;8.29;100.00
11440;BME280;5776;51.814;4.510;2023-04-25T07:50:34;101530.06;;;8.31;100.00
11440;BME280;5776;51.814;4.510;2023-04-25T07:53:00;101531.44;;;8.33;100.00
11440;BME280;5776;51.814;4.510;2023-04-25T07:55:27;101530.09;;;8.36;100.00
11440;BME280;5776;51.814;4.510;2023-04-25T07:57:53;101527.31;;;8.53;100.00
11440;BME280;5776;51.814;4.510;2023-04-25T08:00:19;101531.63;;;8.54;100.00
11440;BME280;5776;51.814;4.510;2023-04-25T08:02:45;101531.59;;;8.49;100.00
11440;BME280;5776;51.814;4.510;2023-04-25T08:05:11;101528.06;;;8.48;100.00
11440;BME280;5776;51.814;4.510;2023-04-25T08:07:40;101538.19;;;8.58;100.00
11440;BME280;5776;51.814;4.510;2023-04-25T08:10:07;101543.13;;;8.66;100.00
11440;BME280;5776;51.814;4.510;2023-04-25T08:12:33;101539.09;;;8.69;99.60
11440;BME280;5776;51.814;4.510;2023-04-25T08:14:59;101555.06;;;8.70;99.97
11440;BME280;5776;51.814;4.510;2023-04-25T08:17:26;101557.19;;;8.63;100.00
11440;BME280;5776;51.814;4.510;2023-04-25T08:19:52;101557.69;;;8.60;100.00
11440;BME280;5776;51.814;4.510;2023-04-25T08:22:18;101564.22;;;8.64;100.00
11440;BME280;5776;51.814;4.510;2023-04-25T08:24:44;101568.03;;;8.63;99.60
11440;BME280;5776;51.814;4.510;2023-04-25T08:27:09;101563.69;;;8.67;99.21
11440;BME280;5776;51.814;4.510;2023-04-25T08:29:35;101570.25;;;8.71;99.59
11440;BME280;5776;51.814;4.510;2023-04-25T08:32:01;101568.06;;;8.68;99.52
11440;BME280;5776;51.814;4.510;2023-04-25T08:34:27;101577.44;;;8.55;99.05
11440;BME280;5776;51.814;4.510;2023-04-25T08:36:53;101583.31;;;8.52;98.92
11440;BME280;5776;51.814;4.510;2023-04-25T08:39:19;101589.78;;;8.46;96.28
11440;BME280;5776;51.814;4.510;2023-04-25T08:41:46;101584.59;;;8.44;96.37
11440;BME280;5776;51.814;4.510;2023-04-25T08:44:13;101594.63;;;8.44;95.31
11440;BME280;5776;51.814;4.510;2023-04-25T08:46:39;101589.72;;;8.41;96.25
11440;BME280;5776;51.814;4.510;2023-04-25T08:49:08;101600.56;;;8.41;95.14
11440;BME280;5776;51.814;4.510;2023-04-25T08:51:36;101607.88;;;8.40;95.97
11440;BME280;5776;51.814;4.510;2023-04-25T08:54:11;101614.34;;;8.39;95.02
11440;BME280;5776;51.814;4.510;2023-04-25T08:56:44;101625.41;;;8.38;95.61
11440;BME280;5776;51.814;4.510;2023-04-25T08:59:14;101629.00;;;8.43;96.42
11440;BME280;5776;51.814;4.510;2023-04-25T09:01:39;101625.22;;;8.44;96.74
11440;BME280;5776;51.814;4.510;2023-04-25T09:04:06;101629.31;;;8.47;96.88
11440;BME280;5776;51.814;4.510;2023-04-25T09:06:32;101629.31;;;8.47;96.90
11440;BME280;5776;51.814;4.510;2023-04-25T09:09:06;101640.94;;;8.48;97.86
11440;BME280;5776;51.814;4.510;2023-04-25T09:11:34;101634.47;;;8.49;97.02
11440;BME280;5776;51.814;4.510;2023-04-25T09:14:12;101640.69;;;8.49;96.32
11440;BME280;5776;51.814;4.510;2023-04-25T09:17:10;101641.78;;;8.48;96.54
11440;BME280;5776;51.814;4.510;2023-04-25T09:19:37;101645.06;;;8.50;96.67
11440;BME280;5776;51.814;4.510;2023-04-25T09:22:06;101658.31;;;8.52;97.52
11440;BME280;5776;51.814;4.510;2023-04-25T09:24:43;101651.59;;;8.54;97.97
11440;BME280;5776;51.814;4.510;2023-04-25T09:27:18;101651.06;;;8.57;96.90
11440;BME280;5776;51.814;4.510;2023-04-25T09:29:45;101660.91;;;8.63;97.09
11440;BME280;5776;51.814;4.510;2023-04-25T09:34:42;101657.91;;;8.65;96.56
11440;BME280;5776;51.814;4.510;2023-04-25T09:37:10;101664.88;;;8.56;95.24
11440;BME280;5776;51.814;4.510;2023-04-25T09:39:37;101665.13;;;8.54;95.02
11440;BME280;5776;51.814;4.510;2023-04-25T09:42:04;101663.78;;;8.57;96.16
11440;BME280;5776;51.814;4.510;2023-04-25T09:44:32;101662.34;;;8.71;96.09
11440;BME280;5776;51.814;4.510;2023-04-25T09:46:58;101667.78;;;8.76;95.59
11440;BME280;5776;51.814;4.510;2023-04-25T09:49:25;101672.41;;;8.76;95.86
11440;BME280;5776;51.814;4.510;2023-04-25T09:51:57;101677.25;;;8.74;95.46
11440;BME280;5776;51.814;4.510;2023-04-25T09:54:26;101682.84;;;8.67;96.42
11440;BME280;5776;51.814;4.510;2023-04-25T09:56:53;101683.94;;;8.66;96.28
11440;BME280;5776;51.814;4.510;2023-04-25T09:59:20;101686.66;;;8.66;96.12
11440;BME280;5776;51.814;4.510;2023-04-25T10:01:48;101695.34;;;8.68;95.42
11440;BME280;5776;51.814;4.510;2023-04-25T10:04:20;101686.25;;;8.79;95.40
11440;BME280;5776;51.814;4.510;2023-04-25T10:06:49;101683.63;;;8.90;93.82
11440;BME280;5776;51.814;4.510;2023-04-25T10:09:16;101691.25;;;8.93;92.58
11440;BME280;5776;51.814;4.510;2023-04-25T10:11:47;101694.56;;;9.00;92.52
11440;BME280;5776;51.814;4.510;2023-04-25T10:14:16;101692.50;;;9.12;92.35
11440;BME280;5776;51.814;4.510;2023-04-25T10:16:43;101699.06;;;9.16;93.50
11440;BME280;5776;51.814;4.510;2023-04-25T10:19:12;101703.00;;;9.30;93.45
11440;BME280;5776;51.814;4.510;2023-04-25T10:21:46;101699.75;;;9.34;92.99
11440;BME280;5776;51.814;4.510;2023-04-25T10:24:14;101704.13;;;9.40;91.68
11440;BME280;5776;51.814;4.510;2023-04-25T10:26:41;101700.63;;;9.39;91.91
11440;BME280;5776;51.814;4.510;2023-04-25T10:29:07;101698.94;;;9.33;91.49
11440;BME280;5776;51.814;4.510;2023-04-25T10:31:44;101708.72;;;9.34;91.64
11440;BME280;5776;51.814;4.510;2023-04-25T10:34:11;101704.41;;;9.38;91.63
11440;BME280;5776;51.814;4.510;2023-04-25T10:36:37;101700.56;;;9.34;91.57
11440;BME280;5776;51.814;4.510;2023-04-25T10:39:05;101710.03;;;9.32;92.85
11440;BME280;5776;51.814;4.510;2023-04-25T10:41:47;101710.00;;;9.26;92.78
11440;BME280;5776;51.814;4.510;2023-04-25T10:44:16;101706.19;;;9.27;93.18
11440;BME280;5776;51.814;4.510;2023-04-25T10:46:44;101711.38;;;9.29;93.64
11440;BME280;5776;51.814;4.510;2023-04-25T10:49:28;101706.25;;;9.33;92.55
11440;BME280;5776;51.814;4.510;2023-04-25T10:52:18;101694.97;;;9.46;93.28
11440;BME280;5776;51.814;4.510;2023-04-25T10:54:56;101706.72;;;9.57;93.18
11440;BME280;5776;51.814;4.510;2023-04-25T10:57:40;101696.47;;;9.64;92.57
11440;BME280;5776;51.814;4.510;2023-04-25T11:00:07;101706.50;;;9.63;92.08
11440;BME280;5776;51.814;4.510;2023-04-25T11:02:57;101709.75;;;9.65;91.71
11440;BME280;5776;51.814;4.510;2023-04-25T11:05:32;101711.69;;;9.70;89.88
11440;BME280;5776;51.814;4.510;2023-04-25T11:07:59;101708.19;;;9.74;90.40
11440;BME280;5776;51.814;4.510;2023-04-25T11:10:31;101710.91;;;9.74;89.57
11440;BME280;5776;51.814;4.510;2023-04-25T11:12:57;101703.88;;;9.79;89.48
11440;BME280;5776;51.814;4.510;2023-04-25T11:15:24;101710.34;;;9.72;90.14
11440;BME280;5776;51.814;4.510;2023-04-25T11:17:51;101716.00;;;9.66;90.26
11440;BME280;5776;51.814;4.510;2023-04-25T11:20:17;101715.28;;;9.76;90.45
11440;BME280;5776;51.814;4.510;2023-04-25T11:22:45;101713.94;;;9.78;89.11
11440;BME280;5776;51.814;4.510;2023-04-25T11:25:13;101713.13;;;9.83;89.41
11440;BME280;5776;51.814;4.510;2023-04-25T11:27:56;101723.50;;;9.91;89.99
11440;BME280;5776;51.814;4.510;2023-04-25T11:30:24;101714.91;;;10.04;90.30
11440;BME280;5776;51.814;4.510;2023-04-25T11:32:50;101715.97;;;10.03;89.95
11440;BME280;5776;51.814;4.510;2023-04-25T11:35:18;101722.16;;;9.93;90.72
11440;BME280;5776;51.814;4.510;2023-04-25T11:37:44;101722.69;;;9.95;90.93
11440;BME280;5776;51.814;4.510;2023-04-25T11:40:11;101720.88;;;10.06;90.49
11440;BME280;5776;51.814;4.510;2023-04-25T11:42:38;101728.97;;;9.96;91.07
11440;BME280;5776;51.814;4.510;2023-04-25T11:45:06;101731.91;;;9.89;91.58
11440;BME280;5776;51.814;4.510;2023-04-25T11:47:33;101744.94;;;9.92;92.35
11440;BME280;5776;51.814;4.510;2023-04-25T11:50:00;101749.03;;;9.95;92.51
11440;BME280;5776;51.814;4.510;2023-04-25T11:52:43;101749.84;;;9.95;91.77
11440;BME280;5776;51.814;4.510;2023-04-25T11:55:13;101751.69;;;9.90;92.65
11440;BME280;5776;51.814;4.510;2023-04-25T11:57:40;101750.66;;;9.91;91.99
11440;BME280;5776;51.814;4.510;2023-04-25T12:00:18;101750.66;;;9.91;92.37
11440;BME280;5776;51.814;4.510;2023-04-25T12:02:47;101751.97;;;9.88;93.01
11440;BME280;5776;51.814;4.510;2023-04-25T12:05:16;101764.19;;;9.86;91.58
11440;BME280;5776;51.814;4.510;2023-04-25T12:07:42;101759.81;;;9.85;91.95
11440;BME280;5776;51.814;4.510;2023-04-25T12:10:11;101757.38;;;9.83;91.22
11440;BME280;5776;51.814;4.510;2023-04-25T12:12:38;101755.75;;;9.87;89.36
11440;BME280;5776;51.814;4.510;2023-04-25T12:15:14;101761.22;;;9.92;89.91
11440;BME280;5776;51.814;4.510;2023-04-25T12:17:46;101751.22;;;9.98;90.08
11440;BME280;5776;51.814;4.510;2023-04-25T12:20:17;101763.72;;;9.99;89.97
11440;BME280;5776;51.814;4.510;2023-04-25T12:22:47;101760.81;;;10.11;91.15
11440;BME280;5776;51.814;4.510;2023-04-25T12:25:40;101759.47;;;10.13;90.01
11440;BME280;5776;51.814;4.510;2023-04-25T12:30:55;101759.44;;;10.08;88.80
11440;BME280;5776;51.814;4.510;2023-04-25T12:33:22;101763.72;;;9.99;89.25
11440;BME280;5776;51.814;4.510;2023-04-25T12:35:48;101767.00;;;10.01;89.27
11440;BME280;5776;51.814;4.510;2023-04-25T12:40:49;101777.38;;;10.14;88.54
11440;BME280;5776;51.814;4.510;2023-04-25T12:43:15;101776.53;;;10.09;88.01
11440;BME280;5776;51.814;4.510;2023-04-25T12:45:41;101776.78;;;10.07;88.12
11440;BME280;5776;51.814;4.510;2023-04-25T12:48:07;101785.72;;;10.03;88.56
11440;BME280;5776;51.814;4.510;2023-04-25T12:50:33;101792.28;;;10.12;89.52
11440;BME280;5776;51.814;4.510;2023-04-25T12:52:59;101788.25;;;10.14;89.12
11440;BME280;5776;51.814;4.510;2023-04-25T12:55:25;101773.56;;;10.15;89.97
11440;BME280;5776;51.814;4.510;2023-04-25T12:57:51;101786.91;;;10.17;88.70
11440;BME280;5776;51.814;4.510;2023-04-25T13:00:18;101787.16;;;10.15;89.77
11440;BME280;5776;51.814;4.510;2023-04-25T13:02:45;101790.94;;;10.14;89.46
11440;BME280;5776;51.814;4.510;2023-04-25T13:05:12;101783.34;;;10.11;89.66
11440;BME280;5776;51.814;4.510;2023-04-25T13:07:38;101780.88;;;10.10;89.35
11440;BME280;5776;51.814;4.510;2023-04-25T13:10:05;101784.16;;;10.12;90.54
11440;BME280;5776;51.814;4.510;2023-04-25T13:12:31;101786.31;;;10.10;89.93